HAZ2829 ZSHC-ZBYC
Flight info
| Callsign | HAZ2829 |
|---|---|
| Flight time | 1h 45m |
| Altitude | 32100 |
| Route | NIVIK5E NIVIK W135 LUPVI R343 HFE B208 TAMIX W4 OMLIX OML19A |
| Aircraft | A320/M-SDE3FGHIRWY/LB1 |
Departure
| Time | 2026-05-08 10:49 |
|---|---|
| Airport | Hangzhou Xiaoshan International Airport (ZSHC) |
Arrival
| Time | 2026-05-08 12:35 |
|---|---|
| Airport | Yuncheng Yanhu International Airport (ZBYC) |
| Time | Latitude | Longitude | Altitude | Speed | Heading |
|---|---|---|---|---|---|
| 2026-05-08 10:30 | 30.24121 | 120.42803 | 31 ft | 0 kts | 234° |
| 2026-05-08 10:40 | 30.24123 | 120.42807 | 32 ft | 3 kts | 234° |
| 2026-05-08 10:41 | 30.24136 | 120.42828 | 32 ft | 3 kts | 234° |
| 2026-05-08 10:41 | 30.24146 | 120.42847 | 31 ft | 3 kts | 264° |
| 2026-05-08 10:41 | 30.24142 | 120.42866 | 32 ft | 3 kts | 315° |
| 2026-05-08 10:41 | 30.24125 | 120.42881 | 11 ft | 3 kts | 332° |
| 2026-05-08 10:42 | 30.24119 | 120.42885 | 37 ft | 0 kts | 333° |
| 2026-05-08 10:43 | 30.24146 | 120.42869 | 32 ft | 13 kts | 332° |
| 2026-05-08 10:44 | 30.24259 | 120.42802 | 32 ft | 19 kts | 334° |
| 2026-05-08 10:44 | 30.24259 | 120.42696 | 32 ft | 18 kts | 243° |
| 2026-05-08 10:44 | 30.24184 | 120.42528 | 32 ft | 27 kts | 242° |
| 2026-05-08 10:44 | 30.24095 | 120.42329 | 32 ft | 28 kts | 243° |
| 2026-05-08 10:45 | 30.24048 | 120.42185 | 32 ft | 13 kts | 287° |
| 2026-05-08 10:45 | 30.24124 | 120.42142 | 31 ft | 16 kts | 335° |
| 2026-05-08 10:45 | 30.24166 | 120.42054 | 31 ft | 14 kts | 249° |
| 2026-05-08 10:45 | 30.24103 | 120.41902 | 32 ft | 28 kts | 243° |
| 2026-05-08 10:46 | 30.24012 | 120.41696 | 32 ft | 29 kts | 243° |
| 2026-05-08 10:46 | 30.23919 | 120.41487 | 32 ft | 30 kts | 243° |
| 2026-05-08 10:46 | 30.23830 | 120.41286 | 32 ft | 28 kts | 243° |
| 2026-05-08 10:46 | 30.23740 | 120.41083 | 32 ft | 29 kts | 243° |
| 2026-05-08 10:47 | 30.23691 | 120.40953 | 32 ft | 8 kts | 277° |
| 2026-05-08 10:47 | 30.23720 | 120.40906 | 33 ft | 9 kts | 331° |
| 2026-05-08 10:47 | 30.23772 | 120.40875 | 34 ft | 11 kts | 333° |
| 2026-05-08 10:47 | 30.23837 | 120.40869 | 33 ft | 8 kts | 57° |
| 2026-05-08 10:48 | 30.23851 | 120.40898 | 34 ft | 0 kts | 63° |
| 2026-05-08 10:48 | 30.23860 | 120.40919 | 33 ft | 14 kts | 63° |
| 2026-05-08 10:48 | 30.23944 | 120.41109 | 33 ft | 65 kts | 63° |
| 2026-05-08 10:48 | 30.24251 | 120.41803 | 32 ft | 126 kts | 63° |
| 2026-05-08 10:49 | 30.24900 | 120.43299 | 181 ft | 176 kts | 63° |
| 2026-05-08 10:49 | 30.25283 | 120.44150 | 536 ft | 183 kts | 63° |
| 2026-05-08 10:49 | 30.25867 | 120.45454 | 1295 ft | 181 kts | 64° |
| 2026-05-08 10:49 | 30.26440 | 120.46743 | 2002 ft | 183 kts | 64° |
| 2026-05-08 10:50 | 30.27261 | 120.48593 | 2631 ft | 198 kts | 63° |
| 2026-05-08 10:50 | 30.27679 | 120.49535 | 3075 ft | 199 kts | 64° |
| 2026-05-08 10:50 | 30.28531 | 120.51442 | 3905 ft | 201 kts | 61° |
| 2026-05-08 10:50 | 30.29106 | 120.52291 | 4257 ft | 208 kts | 44° |
| 2026-05-08 10:51 | 30.30477 | 120.53037 | 4567 ft | 236 kts | 11° |
| 2026-05-08 10:51 | 30.32201 | 120.52810 | 4954 ft | 266 kts | 341° |
| 2026-05-08 10:51 | 30.33899 | 120.51840 | 5685 ft | 276 kts | 334° |
| 2026-05-08 10:51 | 30.35471 | 120.50536 | 6525 ft | 284 kts | 314° |
| 2026-05-08 10:52 | 30.36442 | 120.48539 | 7367 ft | 290 kts | 286° |
| 2026-05-08 10:52 | 30.36515 | 120.46240 | 8352 ft | 289 kts | 258° |
| 2026-05-08 10:52 | 30.35634 | 120.44173 | 9148 ft | 294 kts | 236° |
| 2026-05-08 10:52 | 30.34631 | 120.42098 | 10069 ft | 291 kts | 253° |
| 2026-05-08 10:53 | 30.34239 | 120.39819 | 10873 ft | 289 kts | 265° |
| 2026-05-08 10:53 | 30.34104 | 120.37450 | 11174 ft | 310 kts | 269° |
| 2026-05-08 10:53 | 30.34231 | 120.34842 | 11354 ft | 332 kts | 284° |
| 2026-05-08 10:53 | 30.35198 | 120.32384 | 11487 ft | 353 kts | 306° |
| 2026-05-08 10:54 | 30.36802 | 120.30161 | 11888 ft | 364 kts | 310° |
| 2026-05-08 10:54 | 30.38473 | 120.27927 | 12515 ft | 369 kts | 310° |
| 2026-05-08 10:54 | 30.40162 | 120.25674 | 13177 ft | 372 kts | 310° |
| 2026-05-08 10:54 | 30.41867 | 120.23394 | 13815 ft | 376 kts | 309° |
| 2026-05-08 10:55 | 30.43584 | 120.21090 | 14403 ft | 379 kts | 309° |
| 2026-05-08 10:55 | 30.45305 | 120.18770 | 15045 ft | 379 kts | 309° |
| 2026-05-08 10:55 | 30.47021 | 120.16451 | 15687 ft | 380 kts | 308° |
| 2026-05-08 10:55 | 30.48878 | 120.14256 | 16250 ft | 384 kts | 316° |
| 2026-05-08 10:56 | 30.51026 | 120.12384 | 16783 ft | 388 kts | 320° |
| 2026-05-08 10:56 | 30.53218 | 120.10537 | 17353 ft | 391 kts | 319° |
| 2026-05-08 10:56 | 30.55418 | 120.08678 | 17907 ft | 392 kts | 319° |
| 2026-05-08 10:56 | 30.57630 | 120.06807 | 18430 ft | 395 kts | 318° |
| 2026-05-08 10:57 | 30.59856 | 120.04923 | 18869 ft | 397 kts | 318° |
| 2026-05-08 10:57 | 30.62092 | 120.03031 | 19307 ft | 399 kts | 319° |
| 2026-05-08 10:57 | 30.66607 | 119.99207 | 20162 ft | 404 kts | 319° |
| 2026-05-08 10:58 | 30.68883 | 119.97278 | 20579 ft | 406 kts | 319° |
| 2026-05-08 10:58 | 30.71172 | 119.95335 | 21002 ft | 409 kts | 319° |
| 2026-05-08 10:58 | 30.73473 | 119.93378 | 21414 ft | 411 kts | 319° |
| 2026-05-08 10:58 | 30.75787 | 119.91415 | 21823 ft | 413 kts | 319° |
| 2026-05-08 10:59 | 30.78116 | 119.89438 | 22190 ft | 417 kts | 319° |
| 2026-05-08 10:59 | 30.80460 | 119.87434 | 22545 ft | 419 kts | 319° |
| 2026-05-08 10:59 | 30.82810 | 119.85413 | 22904 ft | 421 kts | 319° |
| 2026-05-08 10:59 | 30.85170 | 119.83377 | 23263 ft | 423 kts | 319° |
| 2026-05-08 11:00 | 30.87540 | 119.81333 | 23629 ft | 425 kts | 319° |
| 2026-05-08 11:00 | 30.89921 | 119.79282 | 23970 ft | 427 kts | 319° |
| 2026-05-08 11:00 | 30.92309 | 119.77225 | 24287 ft | 428 kts | 318° |
| 2026-05-08 11:00 | 30.94703 | 119.75160 | 24607 ft | 429 kts | 318° |
| 2026-05-08 11:01 | 30.97107 | 119.73093 | 24933 ft | 430 kts | 318° |
| 2026-05-08 11:01 | 30.99515 | 119.71021 | 25245 ft | 431 kts | 318° |
| 2026-05-08 11:01 | 31.01925 | 119.68942 | 25548 ft | 432 kts | 318° |
| 2026-05-08 11:01 | 31.04345 | 119.66856 | 25854 ft | 433 kts | 318° |
| 2026-05-08 11:02 | 31.06768 | 119.64766 | 26144 ft | 434 kts | 317° |
| 2026-05-08 11:02 | 31.11621 | 119.60569 | 26792 ft | 435 kts | 317° |
| 2026-05-08 11:02 | 31.14051 | 119.58461 | 27090 ft | 436 kts | 317° |
| 2026-05-08 11:03 | 31.16483 | 119.56350 | 27439 ft | 435 kts | 317° |
| 2026-05-08 11:03 | 31.18908 | 119.54247 | 27854 ft | 433 kts | 317° |
| 2026-05-08 11:03 | 31.21326 | 119.52151 | 28252 ft | 431 kts | 316° |
| 2026-05-08 11:03 | 31.23731 | 119.50068 | 28678 ft | 429 kts | 316° |
| 2026-05-08 11:04 | 31.26123 | 119.47995 | 29096 ft | 428 kts | 316° |
| 2026-05-08 11:04 | 31.28506 | 119.45927 | 29503 ft | 426 kts | 316° |
| 2026-05-08 11:04 | 31.30849 | 119.43891 | 29937 ft | 424 kts | 316° |
| 2026-05-08 11:04 | 31.33211 | 119.41837 | 30351 ft | 422 kts | 316° |
| 2026-05-08 11:05 | 31.35563 | 119.39792 | 30702 ft | 421 kts | 315° |
| 2026-05-08 11:05 | 31.37905 | 119.37753 | 31042 ft | 419 kts | 315° |
| 2026-05-08 11:05 | 31.40243 | 119.35717 | 31422 ft | 418 kts | 316° |
| 2026-05-08 11:05 | 31.42571 | 119.33686 | 31779 ft | 416 kts | 315° |
| 2026-05-08 11:06 | 31.44891 | 119.31662 | 32121 ft | 415 kts | 315° |
| 2026-05-08 11:06 | 31.47207 | 119.29642 | 32258 ft | 415 kts | 315° |
| 2026-05-08 11:06 | 31.49532 | 119.27609 | 32280 ft | 418 kts | 315° |
| 2026-05-08 11:07 | 31.54191 | 119.23522 | 32281 ft | 419 kts | 315° |
| 2026-05-08 11:07 | 31.58857 | 119.19417 | 32277 ft | 420 kts | 315° |
| 2026-05-08 11:08 | 31.62808 | 119.14501 | 32275 ft | 410 kts | 295° |
| 2026-05-08 11:08 | 31.64741 | 119.08351 | 32275 ft | 400 kts | 276° |
| 2026-05-08 11:09 | 31.65157 | 119.01859 | 32261 ft | 399 kts | 273° |
| 2026-05-08 11:09 | 31.65630 | 118.95365 | 32256 ft | 400 kts | 274° |
| 2026-05-08 11:10 | 31.66158 | 118.88869 | 32256 ft | 399 kts | 274° |
| 2026-05-08 11:10 | 31.66664 | 118.82384 | 32254 ft | 399 kts | 273° |
| 2026-05-08 11:11 | 31.67146 | 118.75892 | 32260 ft | 399 kts | 273° |
| 2026-05-08 11:11 | 31.67620 | 118.69404 | 32262 ft | 399 kts | 273° |
| 2026-05-08 11:12 | 31.68093 | 118.62911 | 32271 ft | 399 kts | 273° |
| 2026-05-08 11:12 | 31.68561 | 118.56425 | 32273 ft | 398 kts | 273° |
| 2026-05-08 11:13 | 31.69024 | 118.49995 | 32274 ft | 398 kts | 273° |
| 2026-05-08 11:13 | 31.69497 | 118.43473 | 32271 ft | 398 kts | 273° |
| 2026-05-08 11:14 | 31.69960 | 118.36993 | 32269 ft | 398 kts | 273° |
| 2026-05-08 11:14 | 31.70416 | 118.30510 | 32274 ft | 398 kts | 273° |
| 2026-05-08 11:15 | 31.70867 | 118.24027 | 32273 ft | 398 kts | 272° |
| 2026-05-08 11:15 | 31.71310 | 118.17584 | 32272 ft | 399 kts | 272° |
| 2026-05-08 11:16 | 31.71756 | 118.11095 | 32274 ft | 398 kts | 272° |
| 2026-05-08 11:16 | 31.72227 | 118.04614 | 32283 ft | 398 kts | 273° |
| 2026-05-08 11:17 | 31.72728 | 117.98134 | 32264 ft | 398 kts | 273° |
| 2026-05-08 11:17 | 31.73216 | 117.91648 | 32243 ft | 399 kts | 273° |
| 2026-05-08 11:18 | 31.73692 | 117.85145 | 32252 ft | 400 kts | 272° |
| 2026-05-08 11:18 | 31.74169 | 117.78633 | 32257 ft | 400 kts | 272° |
| 2026-05-08 11:19 | 31.74642 | 117.72124 | 32259 ft | 400 kts | 272° |
| 2026-05-08 11:19 | 31.75110 | 117.65616 | 32260 ft | 400 kts | 272° |
| 2026-05-08 11:20 | 31.75577 | 117.59109 | 32262 ft | 400 kts | 272° |
| 2026-05-08 11:20 | 31.76037 | 117.52640 | 32261 ft | 400 kts | 272° |
| 2026-05-08 11:21 | 31.76492 | 117.46130 | 32272 ft | 400 kts | 272° |
| 2026-05-08 11:21 | 31.76949 | 117.39621 | 32272 ft | 400 kts | 272° |
| 2026-05-08 11:22 | 31.77514 | 117.33118 | 32271 ft | 402 kts | 279° |
| 2026-05-08 11:22 | 31.79804 | 117.27057 | 32269 ft | 417 kts | 300° |
| 2026-05-08 11:23 | 31.83573 | 117.21793 | 32264 ft | 421 kts | 303° |
| 2026-05-08 11:23 | 31.87372 | 117.16546 | 32266 ft | 421 kts | 303° |
| 2026-05-08 11:24 | 31.91163 | 117.11281 | 32261 ft | 422 kts | 303° |
| 2026-05-08 11:24 | 31.94963 | 117.06005 | 32278 ft | 423 kts | 303° |
| 2026-05-08 11:25 | 31.98770 | 117.00719 | 32261 ft | 424 kts | 303° |
| 2026-05-08 11:25 | 32.02588 | 116.95417 | 32255 ft | 425 kts | 303° |
| 2026-05-08 11:26 | 32.06411 | 116.90104 | 32264 ft | 425 kts | 303° |
| 2026-05-08 11:26 | 32.10242 | 116.84782 | 32266 ft | 426 kts | 304° |
| 2026-05-08 11:27 | 32.14080 | 116.79435 | 32255 ft | 428 kts | 304° |
| 2026-05-08 11:27 | 32.17935 | 116.74076 | 32254 ft | 429 kts | 304° |
| 2026-05-08 11:28 | 32.21754 | 116.68665 | 32252 ft | 428 kts | 303° |
| 2026-05-08 11:28 | 32.25452 | 116.63157 | 32254 ft | 428 kts | 302° |
| 2026-05-08 11:29 | 32.29144 | 116.57636 | 32256 ft | 428 kts | 302° |
| 2026-05-08 11:29 | 32.32869 | 116.52117 | 32255 ft | 431 kts | 304° |
| 2026-05-08 11:30 | 32.36621 | 116.46562 | 32244 ft | 433 kts | 304° |
| 2026-05-08 11:30 | 32.40466 | 116.41038 | 32245 ft | 436 kts | 305° |
| 2026-05-08 11:31 | 32.44384 | 116.35546 | 32252 ft | 437 kts | 305° |
| 2026-05-08 11:31 | 32.48292 | 116.30042 | 32253 ft | 437 kts | 305° |
| 2026-05-08 11:32 | 32.52155 | 116.24545 | 32254 ft | 437 kts | 305° |
| 2026-05-08 11:32 | 32.56037 | 116.18997 | 32251 ft | 438 kts | 305° |
| 2026-05-08 11:33 | 32.59936 | 116.13453 | 32246 ft | 438 kts | 305° |
| 2026-05-08 11:33 | 32.63849 | 116.07906 | 32249 ft | 438 kts | 305° |
| 2026-05-08 11:34 | 32.67758 | 116.02353 | 32270 ft | 439 kts | 306° |
| 2026-05-08 11:34 | 32.71667 | 115.96790 | 32263 ft | 439 kts | 306° |
| 2026-05-08 11:35 | 32.75575 | 115.91220 | 32258 ft | 439 kts | 306° |
| 2026-05-08 11:35 | 32.79478 | 115.85639 | 32254 ft | 439 kts | 306° |
| 2026-05-08 11:36 | 32.82725 | 115.80997 | 32255 ft | 440 kts | 306° |
| 2026-05-08 11:36 | 32.86640 | 115.75405 | 32256 ft | 440 kts | 306° |
| 2026-05-08 11:37 | 32.90578 | 115.69827 | 32251 ft | 441 kts | 307° |
| 2026-05-08 11:37 | 32.94633 | 115.64344 | 32255 ft | 441 kts | 307° |
| 2026-05-08 11:38 | 32.98706 | 115.58871 | 32246 ft | 442 kts | 307° |
| 2026-05-08 11:38 | 33.02751 | 115.53365 | 32271 ft | 441 kts | 307° |
| 2026-05-08 11:39 | 33.06773 | 115.47849 | 32274 ft | 441 kts | 307° |
| 2026-05-08 11:39 | 33.10796 | 115.42331 | 32267 ft | 441 kts | 307° |
| 2026-05-08 11:40 | 33.14819 | 115.36814 | 32268 ft | 440 kts | 307° |
| 2026-05-08 11:40 | 33.18837 | 115.31299 | 32260 ft | 440 kts | 307° |
| 2026-05-08 11:41 | 33.22855 | 115.25769 | 32244 ft | 441 kts | 307° |
| 2026-05-08 11:41 | 33.26879 | 115.20237 | 32257 ft | 441 kts | 307° |
| 2026-05-08 11:42 | 33.30898 | 115.14696 | 32262 ft | 441 kts | 307° |
| 2026-05-08 11:42 | 33.34911 | 115.09142 | 32283 ft | 441 kts | 307° |
| 2026-05-08 11:43 | 33.38918 | 115.03602 | 32280 ft | 440 kts | 307° |
| 2026-05-08 11:43 | 33.42913 | 114.98067 | 32277 ft | 439 kts | 307° |
| 2026-05-08 11:44 | 33.46890 | 114.92541 | 32277 ft | 438 kts | 307° |
| 2026-05-08 11:44 | 33.50860 | 114.87020 | 32274 ft | 437 kts | 307° |
| 2026-05-08 11:45 | 33.54825 | 114.81500 | 32270 ft | 437 kts | 307° |
| 2026-05-08 11:45 | 33.58784 | 114.75976 | 32270 ft | 437 kts | 307° |
| 2026-05-08 11:46 | 33.62745 | 114.70455 | 32261 ft | 437 kts | 307° |
| 2026-05-08 11:46 | 33.66810 | 114.65034 | 32258 ft | 439 kts | 314° |
| 2026-05-08 11:47 | 33.71588 | 114.60484 | 32272 ft | 442 kts | 317° |
| 2026-05-08 11:47 | 33.76420 | 114.55941 | 32273 ft | 441 kts | 317° |
| 2026-05-08 11:48 | 33.81236 | 114.51392 | 32265 ft | 440 kts | 317° |
| 2026-05-08 11:48 | 33.86041 | 114.46846 | 32259 ft | 439 kts | 317° |
| 2026-05-08 11:49 | 33.90847 | 114.42306 | 32253 ft | 439 kts | 317° |
| 2026-05-08 11:49 | 33.95648 | 114.37766 | 32247 ft | 439 kts | 317° |
| 2026-05-08 11:50 | 34.00444 | 114.33215 | 32242 ft | 439 kts | 317° |
| 2026-05-08 11:50 | 34.05237 | 114.28653 | 32236 ft | 439 kts | 317° |
| 2026-05-08 11:51 | 34.10035 | 114.24089 | 32234 ft | 439 kts | 317° |
| 2026-05-08 11:51 | 34.14831 | 114.19513 | 32236 ft | 440 kts | 317° |
| 2026-05-08 11:52 | 34.19630 | 114.14931 | 32241 ft | 440 kts | 317° |
| 2026-05-08 11:52 | 34.24424 | 114.10348 | 32235 ft | 439 kts | 317° |
| 2026-05-08 11:53 | 34.29221 | 114.05764 | 32256 ft | 439 kts | 317° |
| 2026-05-08 11:53 | 34.34015 | 114.01184 | 32257 ft | 439 kts | 317° |
| 2026-05-08 11:54 | 34.38802 | 113.96596 | 32248 ft | 438 kts | 317° |
| 2026-05-08 11:54 | 34.43568 | 113.92004 | 32241 ft | 438 kts | 317° |
| 2026-05-08 11:55 | 34.48333 | 113.87409 | 32228 ft | 438 kts | 317° |
| 2026-05-08 11:55 | 34.53619 | 113.83643 | 32224 ft | 450 kts | 334° |
| 2026-05-08 11:56 | 34.59709 | 113.81594 | 32241 ft | 455 kts | 339° |
| 2026-05-08 11:56 | 34.65787 | 113.79618 | 32240 ft | 455 kts | 339° |
| 2026-05-08 11:57 | 34.71896 | 113.77626 | 32237 ft | 454 kts | 339° |
| 2026-05-08 11:57 | 34.78004 | 113.75636 | 32235 ft | 454 kts | 339° |
| 2026-05-08 11:58 | 34.84107 | 113.73651 | 32252 ft | 454 kts | 339° |
| 2026-05-08 11:58 | 34.90132 | 113.71471 | 32247 ft | 449 kts | 335° |
| 2026-05-08 11:59 | 34.98883 | 113.67488 | 32233 ft | 447 kts | 333° |
| 2026-05-08 11:59 | 35.04702 | 113.64816 | 32223 ft | 447 kts | 334° |
| 2026-05-08 12:00 | 35.10550 | 113.62224 | 32251 ft | 447 kts | 334° |
| 2026-05-08 12:00 | 35.16393 | 113.59664 | 32242 ft | 446 kts | 334° |
| 2026-05-08 12:01 | 35.22229 | 113.57099 | 32235 ft | 445 kts | 334° |
| 2026-05-08 12:01 | 35.28051 | 113.54510 | 32233 ft | 445 kts | 334° |
| 2026-05-08 12:02 | 35.33866 | 113.51915 | 32224 ft | 445 kts | 334° |
| 2026-05-08 12:02 | 35.39681 | 113.49325 | 32253 ft | 444 kts | 333° |
| 2026-05-08 12:03 | 35.45490 | 113.46737 | 32263 ft | 444 kts | 333° |
| 2026-05-08 12:03 | 35.51182 | 113.43913 | 32026 ft | 435 kts | 321° |
| 2026-05-08 12:04 | 35.53444 | 113.41557 | 31537 ft | 423 kts | 306° |
| 2026-05-08 12:04 | 35.55027 | 113.38561 | 31050 ft | 418 kts | 292° |
| 2026-05-08 12:04 | 35.55890 | 113.35155 | 30574 ft | 419 kts | 279° |
| 2026-05-08 12:04 | 35.55987 | 113.31577 | 30079 ft | 422 kts | 265° |
| 2026-05-08 12:05 | 35.55274 | 113.28059 | 29535 ft | 431 kts | 251° |
| 2026-05-08 12:05 | 35.53830 | 113.24784 | 28985 ft | 440 kts | 243° |
| 2026-05-08 12:05 | 35.52236 | 113.21550 | 28450 ft | 445 kts | 243° |
| 2026-05-08 12:05 | 35.50620 | 113.18292 | 27928 ft | 449 kts | 243° |
| 2026-05-08 12:06 | 35.49012 | 113.15051 | 27402 ft | 453 kts | 243° |
| 2026-05-08 12:06 | 35.47346 | 113.11694 | 26909 ft | 456 kts | 243° |
| 2026-05-08 12:06 | 35.45709 | 113.08398 | 26400 ft | 460 kts | 242° |
| 2026-05-08 12:06 | 35.44038 | 113.05038 | 25916 ft | 464 kts | 242° |
| 2026-05-08 12:07 | 35.42352 | 113.01648 | 25517 ft | 468 kts | 242° |
| 2026-05-08 12:07 | 35.40652 | 112.98224 | 25182 ft | 472 kts | 242° |
| 2026-05-08 12:07 | 35.38942 | 112.94780 | 24858 ft | 475 kts | 242° |
| 2026-05-08 12:07 | 35.37219 | 112.91316 | 24528 ft | 477 kts | 242° |
| 2026-05-08 12:08 | 35.35486 | 112.87838 | 24197 ft | 478 kts | 242° |
| 2026-05-08 12:08 | 35.33748 | 112.84366 | 23876 ft | 478 kts | 242° |
| 2026-05-08 12:08 | 35.32008 | 112.80897 | 23551 ft | 478 kts | 242° |
| 2026-05-08 12:08 | 35.30273 | 112.77436 | 23154 ft | 477 kts | 242° |
| 2026-05-08 12:09 | 35.28546 | 112.73981 | 22780 ft | 475 kts | 242° |
| 2026-05-08 12:09 | 35.26827 | 112.70543 | 22410 ft | 473 kts | 241° |
| 2026-05-08 12:09 | 35.25110 | 112.67116 | 22038 ft | 472 kts | 241° |
| 2026-05-08 12:09 | 35.23396 | 112.63703 | 21680 ft | 470 kts | 241° |
| 2026-05-08 12:10 | 35.21685 | 112.60303 | 21377 ft | 468 kts | 241° |
| 2026-05-08 12:10 | 35.20164 | 112.56816 | 21075 ft | 463 kts | 251° |
| 2026-05-08 12:10 | 35.19332 | 112.53045 | 20748 ft | 458 kts | 262° |
| 2026-05-08 12:10 | 35.18765 | 112.49228 | 20373 ft | 456 kts | 262° |
| 2026-05-08 12:11 | 35.18214 | 112.45415 | 20014 ft | 455 kts | 262° |
| 2026-05-08 12:11 | 35.17674 | 112.41617 | 19659 ft | 453 kts | 262° |
| 2026-05-08 12:11 | 35.17134 | 112.37827 | 19308 ft | 452 kts | 262° |
| 2026-05-08 12:11 | 35.16593 | 112.34055 | 18955 ft | 450 kts | 262° |
| 2026-05-08 12:12 | 35.16052 | 112.30296 | 18612 ft | 449 kts | 262° |
| 2026-05-08 12:12 | 35.15508 | 112.26545 | 18245 ft | 447 kts | 262° |
| 2026-05-08 12:12 | 35.14965 | 112.22811 | 17847 ft | 446 kts | 262° |
| 2026-05-08 12:12 | 35.14423 | 112.19089 | 17457 ft | 444 kts | 261° |
| 2026-05-08 12:13 | 35.13880 | 112.15383 | 17065 ft | 443 kts | 261° |
| 2026-05-08 12:13 | 35.13339 | 112.11683 | 16682 ft | 441 kts | 261° |
| 2026-05-08 12:13 | 35.12803 | 112.08033 | 16305 ft | 434 kts | 261° |
| 2026-05-08 12:13 | 35.12271 | 112.04413 | 15929 ft | 432 kts | 261° |
| 2026-05-08 12:14 | 35.11740 | 112.00812 | 15563 ft | 430 kts | 261° |
| 2026-05-08 12:14 | 35.11210 | 111.97231 | 15201 ft | 428 kts | 261° |
| 2026-05-08 12:14 | 35.10682 | 111.93659 | 14866 ft | 426 kts | 261° |
| 2026-05-08 12:14 | 35.10157 | 111.90102 | 14558 ft | 425 kts | 260° |
| 2026-05-08 12:15 | 35.09629 | 111.86554 | 14248 ft | 424 kts | 260° |
| 2026-05-08 12:15 | 35.09105 | 111.83064 | 13950 ft | 423 kts | 260° |
| 2026-05-08 12:15 | 35.08577 | 111.79539 | 13618 ft | 422 kts | 260° |
| 2026-05-08 12:15 | 35.08053 | 111.76025 | 13276 ft | 420 kts | 260° |
| 2026-05-08 12:16 | 35.07533 | 111.72529 | 12940 ft | 417 kts | 260° |
| 2026-05-08 12:16 | 35.07019 | 111.69084 | 12613 ft | 406 kts | 260° |
| 2026-05-08 12:16 | 35.06518 | 111.65744 | 12285 ft | 393 kts | 260° |
| 2026-05-08 12:16 | 35.06031 | 111.62509 | 11961 ft | 382 kts | 259° |
| 2026-05-08 12:17 | 35.05556 | 111.59361 | 11634 ft | 372 kts | 259° |
| 2026-05-08 12:17 | 35.05093 | 111.56300 | 11315 ft | 362 kts | 259° |
| 2026-05-08 12:17 | 35.04639 | 111.53324 | 11006 ft | 353 kts | 259° |
| 2026-05-08 12:17 | 35.04195 | 111.50413 | 10692 ft | 345 kts | 259° |
| 2026-05-08 12:18 | 35.03762 | 111.47567 | 10380 ft | 338 kts | 259° |
| 2026-05-08 12:18 | 35.03338 | 111.44777 | 10074 ft | 332 kts | 259° |
| 2026-05-08 12:18 | 35.02920 | 111.42033 | 9754 ft | 326 kts | 259° |
| 2026-05-08 12:18 | 35.02509 | 111.39336 | 9398 ft | 320 kts | 259° |
| 2026-05-08 12:19 | 35.02109 | 111.36731 | 9047 ft | 304 kts | 258° |
| 2026-05-08 12:19 | 35.01708 | 111.34267 | 8729 ft | 288 kts | 259° |
| 2026-05-08 12:19 | 35.01661 | 111.31907 | 8428 ft | 273 kts | 283° |
| 2026-05-08 12:19 | 35.02423 | 111.29878 | 8127 ft | 259 kts | 309° |
| 2026-05-08 12:20 | 35.03774 | 111.28527 | 7786 ft | 249 kts | 335° |
| 2026-05-08 12:20 | 35.05408 | 111.27937 | 7394 ft | 244 kts | 348° |
| 2026-05-08 12:20 | 35.07060 | 111.27522 | 6979 ft | 240 kts | 348° |
| 2026-05-08 12:20 | 35.08690 | 111.27111 | 6576 ft | 238 kts | 348° |
| 2026-05-08 12:21 | 35.10305 | 111.26705 | 6149 ft | 236 kts | 348° |
| 2026-05-08 12:21 | 35.11906 | 111.26300 | 5724 ft | 235 kts | 348° |
| 2026-05-08 12:21 | 35.13488 | 111.25849 | 5301 ft | 232 kts | 338° |
| 2026-05-08 12:21 | 35.14391 | 111.25180 | 5026 ft | 229 kts | 314° |
| 2026-05-08 12:22 | 35.15153 | 111.23531 | 4567 ft | 225 kts | 279° |
| 2026-05-08 12:22 | 35.14942 | 111.20996 | 3928 ft | 226 kts | 257° |
| 2026-05-08 12:22 | 35.14723 | 111.19799 | 3718 ft | 223 kts | 257° |
| 2026-05-08 12:22 | 35.14400 | 111.17993 | 3426 ft | 218 kts | 257° |
| 2026-05-08 12:23 | 35.14087 | 111.16194 | 3141 ft | 207 kts | 256° |
| 2026-05-08 12:23 | 35.13710 | 111.14016 | 2774 ft | 189 kts | 257° |
| 2026-05-08 12:23 | 35.13532 | 111.12988 | 2617 ft | 178 kts | 257° |
| 2026-05-08 12:23 | 35.13214 | 111.11154 | 2316 ft | 156 kts | 256° |
| 2026-05-08 12:24 | 35.13067 | 111.10309 | 2186 ft | 151 kts | 257° |
| 2026-05-08 12:24 | 35.12848 | 111.09069 | 1986 ft | 148 kts | 257° |
| 2026-05-08 12:24 | 35.12631 | 111.07852 | 1780 ft | 146 kts | 258° |
| 2026-05-08 12:24 | 35.12424 | 111.06640 | 1565 ft | 146 kts | 258° |
| 2026-05-08 12:25 | 35.12217 | 111.05433 | 1371 ft | 145 kts | 256° |
| 2026-05-08 12:25 | 35.12006 | 111.04241 | 1254 ft | 134 kts | 257° |
| 2026-05-08 12:25 | 35.11819 | 111.03159 | 1243 ft | 152 kts | 257° |
| 2026-05-08 12:25 | 35.11576 | 111.01746 | 1748 ft | 177 kts | 257° |
| 2026-05-08 12:26 | 35.11321 | 111.00197 | 2489 ft | 195 kts | 258° |
| 2026-05-08 12:26 | 35.11076 | 110.98583 | 3221 ft | 197 kts | 263° |
| 2026-05-08 12:26 | 35.11341 | 110.96913 | 3397 ft | 208 kts | 298° |
| 2026-05-08 12:26 | 35.12360 | 110.95695 | 3403 ft | 208 kts | 328° |
| 2026-05-08 12:27 | 35.13646 | 110.94882 | 3392 ft | 209 kts | 333° |
| 2026-05-08 12:27 | 35.15021 | 110.94350 | 3267 ft | 208 kts | 351° |
| 2026-05-08 12:27 | 35.16438 | 110.94538 | 3132 ft | 206 kts | 26° |
| 2026-05-08 12:27 | 35.17438 | 110.95676 | 3041 ft | 196 kts | 64° |
| 2026-05-08 12:28 | 35.17943 | 110.97208 | 3020 ft | 194 kts | 73° |
| 2026-05-08 12:28 | 35.18346 | 110.98778 | 3018 ft | 193 kts | 75° |
| 2026-05-08 12:28 | 35.18735 | 111.00352 | 3017 ft | 194 kts | 75° |
| 2026-05-08 12:28 | 35.19120 | 111.01927 | 3023 ft | 193 kts | 76° |
| 2026-05-08 12:29 | 35.19442 | 111.03521 | 3023 ft | 193 kts | 79° |
| 2026-05-08 12:29 | 35.19723 | 111.05122 | 3024 ft | 193 kts | 79° |
| 2026-05-08 12:29 | 35.20000 | 111.06723 | 3022 ft | 193 kts | 79° |
| 2026-05-08 12:29 | 35.20276 | 111.08325 | 3024 ft | 193 kts | 79° |
| 2026-05-08 12:30 | 35.20552 | 111.09929 | 3025 ft | 193 kts | 79° |
| 2026-05-08 12:30 | 35.20826 | 111.11538 | 3024 ft | 193 kts | 80° |
| 2026-05-08 12:30 | 35.21102 | 111.13143 | 3025 ft | 193 kts | 79° |
| 2026-05-08 12:30 | 35.21317 | 111.14754 | 3027 ft | 190 kts | 94° |
| 2026-05-08 12:31 | 35.20852 | 111.16203 | 3031 ft | 185 kts | 133° |
| 2026-05-08 12:31 | 35.19795 | 111.16941 | 3039 ft | 185 kts | 163° |
| 2026-05-08 12:31 | 35.18529 | 111.17260 | 3037 ft | 187 kts | 172° |
| 2026-05-08 12:31 | 35.17237 | 111.17250 | 3031 ft | 180 kts | 183° |
| 2026-05-08 12:32 | 35.16038 | 111.17009 | 3029 ft | 171 kts | 193° |
| 2026-05-08 12:32 | 35.14966 | 111.16393 | 3022 ft | 171 kts | 215° |
| 2026-05-08 12:32 | 35.14145 | 111.15343 | 2915 ft | 174 kts | 237° |
| 2026-05-08 12:32 | 35.13701 | 111.13982 | 2741 ft | 170 kts | 257° |
| 2026-05-08 12:33 | 35.13469 | 111.12632 | 2570 ft | 155 kts | 256° |
| 2026-05-08 12:33 | 35.13251 | 111.11372 | 2357 ft | 149 kts | 257° |
| 2026-05-08 12:33 | 35.13038 | 111.10147 | 2161 ft | 147 kts | 257° |
| 2026-05-08 12:33 | 35.12828 | 111.08930 | 1941 ft | 147 kts | 257° |
| 2026-05-08 12:34 | 35.12614 | 111.07714 | 1723 ft | 147 kts | 258° |
| 2026-05-08 12:34 | 35.12400 | 111.06502 | 1525 ft | 146 kts | 257° |
| 2026-05-08 12:34 | 35.12189 | 111.05293 | 1349 ft | 145 kts | 256° |
| 2026-05-08 12:34 | 35.11992 | 111.04114 | 1250 ft | 132 kts | 259° |
| 2026-05-08 12:35 | 35.11830 | 111.03215 | 1241 ft | 86 kts | 258° |
| 2026-05-08 12:35 | 35.11745 | 111.02724 | 1247 ft | 42 kts | 258° |
| 2026-05-08 12:35 | 35.11685 | 111.02390 | 1243 ft | 39 kts | 258° |
| 2026-05-08 12:35 | 35.11631 | 111.02068 | 1246 ft | 38 kts | 258° |
| 2026-05-08 12:36 | 35.11578 | 111.01768 | 1245 ft | 30 kts | 257° |
| 2026-05-08 12:36 | 35.11534 | 111.01522 | 1251 ft | 23 kts | 251° |
| 2026-05-08 12:36 | 35.11487 | 111.01467 | 1245 ft | 7 kts | 245° |
| 2026-05-08 12:36 | 35.11512 | 111.01456 | 1248 ft | 8 kts | 21° |
| 2026-05-08 12:37 | 35.11544 | 111.01577 | 1246 ft | 23 kts | 77° |
| 2026-05-08 12:37 | 35.11584 | 111.01802 | 1245 ft | 29 kts | 78° |
| 2026-05-08 12:37 | 35.11626 | 111.02044 | 1251 ft | 29 kts | 78° |
| 2026-05-08 12:37 | 35.11668 | 111.02283 | 1242 ft | 28 kts | 78° |
| 2026-05-08 12:38 | 35.11709 | 111.02515 | 1244 ft | 28 kts | 78° |
| 2026-05-08 12:38 | 35.11750 | 111.02752 | 1248 ft | 29 kts | 77° |
| 2026-05-08 12:38 | 35.11791 | 111.02988 | 1252 ft | 29 kts | 78° |
| 2026-05-08 12:38 | 35.11833 | 111.03227 | 1248 ft | 25 kts | 76° |
| 2026-05-08 12:39 | 35.11841 | 111.03362 | 1241 ft | 9 kts | 133° |
| 2026-05-08 12:39 | 35.11781 | 111.03390 | 1250 ft | 9 kts | 167° |
| 2026-05-08 12:39 | 35.11701 | 111.03412 | 1245 ft | 18 kts | 167° |
| 2026-05-08 12:39 | 35.11557 | 111.03449 | 1244 ft | 18 kts | 167° |
| 2026-05-08 12:40 | 35.11514 | 111.03517 | 1241 ft | 11 kts | 79° |
| 2026-05-08 12:40 | 35.11528 | 111.03607 | 1241 ft | 4 kts | 82° |
| 2026-05-08 12:40 | 35.11528 | 111.03617 | 1250 ft | 5 kts | 92° |
| 2026-05-08 12:40 | 35.11487 | 111.03637 | 1246 ft | 2 kts | 169° |
| 2026-05-08 12:41 | 35.11470 | 111.03641 | 1250 ft | 2 kts | 169° |